Time;durP1;ratioP1;P1;durP2;ratioP2;P2;SDS_P1;SDS_P2;PMS_P1;PMS_P2;Temp;Humidity;BMP_temperature;BMP_pressure;BME280_temperature;BME280_humidity;BME280_pressure;Samples;Min_cycle;Max_cycle;Signal;HPM_P1;HPM_P2
2021/10/08 00:02:02;;;;;;;4.90;4.50;;;11.80;87.20;;;;;;5081768;28;20256;-89
2021/10/08 00:04:28;;;;;;;6.57;4.17;;;11.90;87.00;;;;;;5100202;28;20227;-90
2021/10/08 00:06:53;;;;;;;4.57;4.27;;;11.90;86.00;;;;;;5081843;28;20243;-89
2021/10/08 00:09:19;;;;;;;5.93;4.93;;;11.90;85.60;;;;;;5065551;28;20205;-90
2021/10/08 00:11:45;;;;;;;5.60;5.10;;;11.70;85.80;;;;;;5083247;28;20202;-89
2021/10/08 00:14:11;;;;;;;4.90;4.50;;;11.60;86.60;;;;;;5101773;28;20190;-90
2021/10/08 00:16:36;;;;;;;4.83;4.10;;;11.50;87.50;;;;;;5085369;28;20190;-91
2021/10/08 00:19:02;;;;;;;5.50;3.90;;;11.50;88.80;;;;;;5066231;28;20177;-90
2021/10/08 00:21:28;;;;;;;6.53;4.77;;;11.60;88.50;;;;;;5098398;28;20216;-90
2021/10/08 00:23:53;;;;;;;4.70;4.30;;;11.60;87.80;;;;;;5087266;28;20185;-88
2021/10/08 00:26:19;;;;;;;4.73;4.40;;;11.60;87.60;;;;;;5065379;28;20197;-87
2021/10/08 00:28:45;;;;;;;6.07;4.90;;;11.60;85.90;;;;;;5100305;28;20186;-90
2021/10/08 00:31:11;;;;;;;4.60;4.20;;;11.50;87.60;;;;;;5081746;28;20204;-88
2021/10/08 00:33:36;;;;;;;4.90;4.50;;;11.50;88.30;;;;;;5100019;28;20808;-88
2021/10/08 00:36:02;;;;;;;4.67;4.20;;;11.50;87.90;;;;;;5082074;28;20270;-88
2021/10/08 00:38:28;;;;;;;4.93;4.53;;;11.50;88.40;;;;;;5099810;28;20189;-88
2021/10/08 00:40:54;;;;;;;4.93;4.53;;;11.50;88.00;;;;;;5064951;28;20638;-88
2021/10/08 00:43:21;;;;;;;4.83;4.37;;;11.50;88.20;;;;;;5064834;28;20206;-89
2021/10/08 00:45:47;;;;;;;4.40;4.00;;;11.50;88.70;;;;;;5064974;28;20286;-88
2021/10/08 00:48:14;;;;;;;4.73;4.43;;;11.50;88.70;;;;;;5082336;28;20182;-88
2021/10/08 00:50:45;;;;;;;4.50;4.17;;;11.60;88.70;;;;;;5065885;28;20186;-92
2021/10/08 00:53:11;;;;;;;4.83;4.33;;;11.60;88.60;;;;;;5083771;28;20209;-89
2021/10/08 00:55:42;;;;;;;4.57;4.17;;;11.60;88.00;;;;;;5102029;28;20207;-89
2021/10/08 00:58:09;;;;;;;4.83;4.43;;;11.60;87.90;;;;;;5102694;28;20673;-90
2021/10/08 01:00:38;;;;;;;4.80;4.40;;;11.60;88.10;;;;;;5067524;28;20182;-89
2021/10/08 01:03:03;;;;;;;4.20;3.77;;;11.80;87.60;;;;;;5067673;28;20225;-88
2021/10/08 01:05:29;;;;;;;4.30;4.00;;;11.80;86.90;;;;;;5084096;28;20182;-89
2021/10/08 01:07:55;;;;;;;4.60;4.27;;;11.80;86.50;;;;;;5083856;28;20252;-88
2021/10/08 01:10:21;;;;;;;4.50;4.20;;;11.80;86.50;;;;;;5067783;28;20211;-88
2021/10/08 01:12:46;;;;;;;4.77;4.27;;;11.80;86.40;;;;;;5063203;28;20213;-91
2021/10/08 01:15:13;;;;;;;4.40;4.00;;;11.90;86.50;;;;;;5098330;28;20190;-90
2021/10/08 01:17:39;;;;;;;4.80;4.40;;;11.90;86.30;;;;;;5098713;28;20256;-89
2021/10/08 01:20:07;;;;;;;5.07;4.67;;;11.80;86.20;;;;;;5080724;28;20190;-90
2021/10/08 01:22:32;;;;;;;4.67;4.20;;;11.80;86.10;;;;;;5080049;28;20221;-89
2021/10/08 01:24:58;;;;;;;6.43;4.47;;;11.80;86.70;;;;;;5063104;28;20683;-88
2021/10/08 01:27:24;;;;;;;4.30;3.90;;;11.80;87.00;;;;;;5063554;28;20675;-89
2021/10/08 01:29:53;;;;;;;4.10;3.80;;;11.80;86.10;;;;;;5097955;28;20179;-89
2021/10/08 01:32:20;;;;;;;4.20;3.90;;;11.80;86.20;;;;;;5079510;28;20277;-88
2021/10/08 01:34:46;;;;;;;3.90;3.60;;;11.80;85.90;;;;;;5098024;28;20239;-88
2021/10/08 01:37:16;;;;;;;4.73;4.33;;;11.70;86.30;;;;;;5079884;28;20188;-88
2021/10/08 01:39:43;;;;;;;4.33;4.03;;;11.70;86.80;;;;;;5080419;28;20167;-88
2021/10/08 01:42:09;;;;;;;4.13;3.83;;;11.70;86.30;;;;;;5079882;28;20742;-91
2021/10/08 01:44:35;;;;;;;4.07;3.77;;;11.70;86.70;;;;;;5079885;28;20182;-89
2021/10/08 01:47:01;;;;;;;4.70;4.30;;;11.60;86.70;;;;;;5098188;28;20170;-88
2021/10/08 01:49:27;;;;;;;4.37;3.93;;;11.70;87.00;;;;;;5080440;28;20205;-89
2021/10/08 01:51:52;;;;;;;4.53;4.17;;;11.60;87.10;;;;;;5080193;28;20218;-89
2021/10/08 01:54:18;;;;;;;4.33;3.93;;;11.60;87.10;;;;;;5063131;28;20276;-89
2021/10/08 01:56:45;;;;;;;4.27;3.97;;;11.60;86.80;;;;;;5063256;28;20189;-88
2021/10/08 01:59:14;;;;;;;4.80;4.30;;;11.60;87.00;;;;;;5079510;28;20182;-89
2021/10/08 02:01:42;;;;;;;8.00;4.73;;;11.50;86.80;;;;;;5079803;28;20301;-90
2021/10/08 02:04:08;;;;;;;5.47;4.97;;;11.40;86.90;;;;;;5079740;28;20181;-91
2021/10/08 02:06:34;;;;;;;4.60;4.20;;;11.30;86.90;;;;;;5080502;28;20604;-88
2021/10/08 02:09:01;;;;;;;5.10;4.07;;;11.20;88.20;;;;;;5079615;28;20189;-89
2021/10/08 02:11:27;;;;;;;4.23;3.93;;;11.20;89.20;;;;;;5079896;28;20282;-89
2021/10/08 02:13:53;;;;;;;5.40;4.90;;;11.20;89.20;;;;;;5080389;28;20607;-88
2021/10/08 02:16:20;;;;;;;5.07;4.60;;;11.30;88.80;;;;;;5098559;28;20182;-88
2021/10/08 02:18:47;;;;;;;4.93;4.53;;;11.20;88.20;;;;;;5079336;28;20608;-88
2021/10/08 02:21:13;;;;;;;4.60;4.20;;;11.20;88.10;;;;;;5079963;28;20677;-89
2021/10/08 02:23:39;;;;;;;4.80;4.40;;;11.10;88.00;;;;;;5079691;28;20181;-90
2021/10/08 02:26:05;;;;;;;4.47;4.17;;;11.20;87.70;;;;;;5063928;28;20179;-89
2021/10/08 02:28:31;;;;;;;4.60;4.20;;;11.10;87.80;;;;;;5079463;28;20268;-90
2021/10/08 02:30:56;;;;;;;5.53;3.90;;;11.10;87.90;;;;;;5079140;28;20281;-91
2021/10/08 02:33:22;;;;;;;4.77;4.30;;;11.20;88.20;;;;;;5063604;28;20700;-89
2021/10/08 02:35:50;;;;;;;5.00;4.60;;;11.30;88.10;;;;;;5079871;28;20281;-88
2021/10/08 02:38:16;;;;;;;5.73;5.13;;;11.30;87.80;;;;;;5079766;28;20220;-89
2021/10/08 02:40:42;;;;;;;5.00;4.50;;;11.30;87.80;;;;;;5097741;28;20184;-89
2021/10/08 02:43:08;;;;;;;5.27;4.77;;;11.40;87.60;;;;;;5061954;28;20210;-89
2021/10/08 02:45:34;;;;;;;7.17;5.33;;;11.40;87.60;;;;;;5079120;28;20197;-89
2021/10/08 02:47:59;;;;;;;5.80;4.57;;;11.30;87.70;;;;;;5079817;28;20181;-89
2021/10/08 02:50:26;;;;;;;5.90;5.40;;;11.20;88.60;;;;;;5062310;28;20185;-89
2021/10/08 02:52:52;;;;;;;5.53;4.43;;;11.20;88.40;;;;;;5078553;28;20300;-89
2021/10/08 02:55:18;;;;;;;4.90;4.50;;;11.10;88.70;;;;;;5078228;28;20191;-89
2021/10/08 02:57:44;;;;;;;6.07;5.57;;;11.10;89.20;;;;;;5078973;28;20194;-90
2021/10/08 03:00:10;;;;;;;6.13;5.30;;;11.00;89.10;;;;;;5062141;28;20196;-88
2021/10/08 03:02:37;;;;;;;5.43;4.93;;;11.10;90.30;;;;;;5079481;28;20270;-89
2021/10/08 03:05:03;;;;;;;5.40;4.90;;;11.10;90.30;;;;;;5079490;28;20230;-89
2021/10/08 03:07:29;;;;;;;6.10;5.40;;;11.10;89.90;;;;;;5079335;28;20697;-89
2021/10/08 03:09:54;;;;;;;6.60;6.00;;;11.10;89.40;;;;;;5078935;28;20245;-89
2021/10/08 03:12:20;;;;;;;6.23;5.73;;;11.00;89.60;;;;;;5081407;28;20702;-88
2021/10/08 03:14:47;;;;;;;6.10;5.50;;;10.90;90.20;;;;;;5061525;28;20198;-88
2021/10/08 03:17:13;;;;;;;6.73;6.13;;;10.80;91.00;;;;;;5045092;28;20203;-89
2021/10/08 03:19:39;;;;;;;6.90;6.30;;;10.80;91.30;;;;;;5082768;28;20250;-89
2021/10/08 03:22:05;;;;;;;7.60;6.67;;;10.70;91.80;;;;;;5098591;28;20244;-88
2021/10/08 03:24:31;;;;;;;6.50;5.90;;;10.60;91.80;;;;;;5063066;28;20260;-88
2021/10/08 03:26:57;;;;;;;6.17;5.57;;;10.60;92.30;;;;;;5080300;28;20283;-90
2021/10/08 03:29:22;;;;;;;7.60;6.43;;;10.60;91.70;;;;;;5097870;28;20203;-88
2021/10/08 03:31:48;;;;;;;6.53;6.03;;;10.50;92.30;;;;;;5098536;28;20224;-89
2021/10/08 03:34:14;;;;;;;7.03;6.33;;;10.50;92.20;;;;;;5064047;28;20181;-89
2021/10/08 03:39:06;;;;;;;6.73;6.07;;;10.50;92.50;;;;;;5099221;28;20177;-89
2021/10/08 03:41:33;;;;;;;7.27;6.60;;;10.50;92.30;;;;;;5064662;28;20269;-87
2021/10/08 03:44:01;;;;;;;7.07;6.47;;;10.40;92.40;;;;;;5080166;28;20275;-88
2021/10/08 03:46:32;;;;;;;6.33;5.40;;;10.40;92.20;;;;;;5064221;28;20236;-89
2021/10/08 03:51:34;;;;;;;6.97;5.70;;;10.30;93.10;;;;;;5098809;28;20210;-90
2021/10/08 03:54:02;;;;;;;5.73;5.23;;;10.40;92.80;;;;;;5063542;28;20179;-90
2021/10/08 03:56:28;;;;;;;8.30;6.33;;;10.40;92.20;;;;;;5080646;28;20194;-87
2021/10/08 03:58:59;;;;;;;6.50;5.90;;;10.30;92.50;;;;;;5081564;28;20546;-88
2021/10/08 04:01:26;;;;;;;6.10;5.30;;;10.20;92.20;;;;;;5080750;28;20661;-87
2021/10/08 04:03:51;;;;;;;6.47;5.87;;;10.20;93.00;;;;;;5063890;28;20605;-89
2021/10/08 04:06:17;;;;;;;5.97;5.00;;;10.10;93.40;;;;;;5063794;28;20190;-88
2021/10/08 04:08:44;;;;;;;6.13;5.53;;;10.10;93.10;;;;;;5080748;28;20180;-88
2021/10/08 04:11:10;;;;;;;14.83;13.43;;;10.20;92.90;;;;;;5098146;28;20202;-88
2021/10/08 04:13:37;;;;;;;6.97;6.33;;;10.20;92.30;;;;;;5064211;28;20703;-87
2021/10/08 04:16:03;;;;;;;6.40;5.90;;;10.10;92.20;;;;;;5081483;28;20176;-88
2021/10/08 04:18:29;;;;;;;7.87;6.80;;;10.10;92.90;;;;;;5081001;28;20194;-88
2021/10/08 04:20:55;;;;;;;7.67;6.87;;;10.00;92.90;;;;;;5081026;28;20726;-88
2021/10/08 04:23:21;;;;;;;11.53;9.70;;;9.90;93.20;;;;;;5064649;28;20207;-88
2021/10/08 04:25:47;;;;;;;12.87;10.20;;;9.90;93.40;;;;;;5082335;28;20224;-88
2021/10/08 04:28:13;;;;;;;15.07;13.60;;;9.80;93.70;;;;;;5084359;28;20201;-88
2021/10/08 04:30:39;;;;;;;14.07;12.93;;;9.80;94.00;;;;;;5067853;28;20230;-88
2021/10/08 04:33:20;;;;;;;10.20;9.03;;;9.80;94.00;;;;;;5082014;28;20213;-89
2021/10/08 04:35:47;;;;;;;6.20;5.57;;;9.80;93.40;;;;;;5097559;28;20199;-89
2021/10/08 04:38:13;;;;;;;6.37;5.77;;;9.90;94.00;;;;;;5097428;28;20172;-88
2021/10/08 04:40:38;;;;;;;5.80;5.30;;;9.90;93.90;;;;;;5078039;28;20878;-87
2021/10/08 04:43:05;;;;;;;7.27;6.23;;;9.90;92.80;;;;;;5095057;28;20207;-87
2021/10/08 04:45:30;;;;;;;6.30;5.70;;;9.90;92.80;;;;;;5096863;28;20186;-87
2021/10/08 04:47:57;;;;;;;5.43;5.03;;;9.90;92.70;;;;;;5098294;28;20216;-88
2021/10/08 04:50:23;;;;;;;6.20;5.60;;;9.70;93.00;;;;;;5099031;28;20187;-88
2021/10/08 04:52:49;;;;;;;6.27;5.47;;;9.60;94.20;;;;;;5098601;28;20225;-88
2021/10/08 04:55:15;;;;;;;5.77;5.27;;;9.50;94.60;;;;;;5099513;28;20191;-90
2021/10/08 04:57:40;;;;;;;6.40;5.90;;;9.60;94.50;;;;;;5099775;28;20198;-87
2021/10/08 05:00:07;;;;;;;7.10;6.50;;;9.60;94.40;;;;;;5099446;28;20191;-88
2021/10/08 05:02:33;;;;;;;7.70;6.37;;;9.60;94.20;;;;;;5098379;28;20313;-88
2021/10/08 05:04:59;;;;;;;6.90;5.97;;;9.60;94.50;;;;;;5099091;28;20226;-87
2021/10/08 05:07:25;;;;;;;5.87;5.37;;;9.80;95.10;;;;;;5100253;28;20258;-87
2021/10/08 05:09:51;;;;;;;6.00;5.50;;;9.80;94.00;;;;;;5098684;28;20210;-87
2021/10/08 05:12:16;;;;;;;9.90;7.07;;;9.90;92.70;;;;;;5093006;28;20207;-87
2021/10/08 05:14:42;;;;;;;6.43;5.57;;;9.80;93.30;;;;;;5098608;28;20265;-87
2021/10/08 05:17:08;;;;;;;7.30;5.87;;;9.80;93.50;;;;;;5099935;28;20657;-87
2021/10/08 05:19:33;;;;;;;10.03;9.03;;;9.80;92.70;;;;;;5096287;28;20190;-87
2021/10/08 05:21:59;;;;;;;8.37;7.67;;;9.90;92.90;;;;;;5078816;28;20234;-87
2021/10/08 05:24:25;;;;;;;11.00;7.43;;;9.80;93.40;;;;;;5098902;28;20258;-87
2021/10/08 05:26:51;;;;;;;9.00;8.10;;;9.90;93.00;;;;;;5079859;28;20179;-87
2021/10/08 05:29:16;;;;;;;8.70;7.90;;;9.90;92.90;;;;;;5080603;28;20194;-87
2021/10/08 05:31:42;;;;;;;7.70;6.93;;;9.90;92.60;;;;;;5078382;28;20203;-87
2021/10/08 05:34:10;;;;;;;7.13;6.53;;;9.90;93.20;;;;;;5097560;28;20194;-88
2021/10/08 05:36:36;;;;;;;7.23;6.53;;;9.90;93.60;;;;;;5096913;28;20251;-87
2021/10/08 05:39:03;;;;;;;5.87;5.33;;;10.00;93.90;;;;;;5078319;28;20212;-88
2021/10/08 05:41:29;;;;;;;6.33;5.83;;;10.10;93.30;;;;;;5100113;28;20246;-88
2021/10/08 05:43:54;;;;;;;7.77;6.83;;;10.20;92.90;;;;;;5101178;28;20189;-87
2021/10/08 05:46:20;;;;;;;7.40;6.70;;;10.30;91.40;;;;;;5102420;28;20237;-89
2021/10/08 05:48:46;;;;;;;8.00;7.30;;;10.20;91.00;;;;;;5085581;28;20200;-86
2021/10/08 05:51:11;;;;;;;8.17;7.47;;;10.10;90.90;;;;;;5083347;28;20193;-87
2021/10/08 05:53:37;;;;;;;8.53;7.83;;;10.00;91.40;;;;;;5085657;28;20195;-87
2021/10/08 05:56:03;;;;;;;7.07;6.37;;;10.00;92.70;;;;;;5069584;28;20187;-87
2021/10/08 05:58:29;;;;;;;6.93;6.23;;;9.90;92.40;;;;;;5085777;28;20180;-88
2021/10/08 06:00:55;;;;;;;6.77;6.20;;;9.90;92.90;;;;;;5103436;28;20210;-88
2021/10/08 06:03:21;;;;;;;7.60;6.20;;;10.00;92.90;;;;;;5103577;28;20218;-87
2021/10/08 06:05:46;;;;;;;7.40;6.70;;;9.90;93.10;;;;;;5105112;28;20190;-89
2021/10/08 06:08:12;;;;;;;7.93;7.20;;;10.00;92.90;;;;;;5105929;28;20184;-89
2021/10/08 06:10:38;;;;;;;6.33;5.83;;;10.10;92.50;;;;;;5104098;28;20187;-88
2021/10/08 06:13:05;;;;;;;7.83;7.23;;;10.00;92.80;;;;;;5082682;28;20275;-88
2021/10/08 06:15:31;;;;;;;7.50;6.77;;;10.10;93.00;;;;;;5100909;28;20221;-89
2021/10/08 06:17:57;;;;;;;7.17;6.60;;;10.10;92.90;;;;;;5098448;28;20207;-89
2021/10/08 06:20:25;;;;;;;6.80;6.27;;;10.10;93.10;;;;;;5101234;28;20187;-89
2021/10/08 06:22:52;;;;;;;7.43;6.83;;;10.10;93.20;;;;;;5100935;28;20215;-89
2021/10/08 06:25:19;;;;;;;7.77;6.93;;;10.10;92.90;;;;;;5079740;28;20191;-89
2021/10/08 06:27:46;;;;;;;8.37;7.07;;;10.00;93.90;;;;;;5081458;28;20195;-88
2021/10/08 06:30:14;;;;;;;7.80;6.57;;;10.00;93.80;;;;;;5100580;28;20195;-88
2021/10/08 06:32:40;;;;;;;8.77;7.47;;;10.00;94.20;;;;;;5082657;28;20288;-87
2021/10/08 06:35:07;;;;;;;11.93;7.53;;;9.90;94.40;;;;;;5100705;28;20276;-87
2021/10/08 06:37:35;;;;;;;7.63;6.90;;;9.90;95.00;;;;;;5100306;28;20320;-88
2021/10/08 06:40:00;;;;;;;9.00;7.23;;;9.90;95.20;;;;;;5082814;28;20254;-89
2021/10/08 06:42:26;;;;;;;8.47;7.53;;;9.80;95.70;;;;;;5101450;28;20315;-87
2021/10/08 06:44:57;;;;;;;10.43;7.40;;;9.90;95.50;;;;;;5083639;28;20247;-89
2021/10/08 06:47:25;;;;;;;8.23;7.30;;;9.90;95.60;;;;;;5083349;28;20183;-88
2021/10/08 06:49:51;;;;;;;8.40;6.90;;;9.90;95.60;;;;;;5100433;28;20225;-88
2021/10/08 06:52:17;;;;;;;7.67;6.67;;;9.90;95.70;;;;;;5101613;28;20560;-88
2021/10/08 06:54:43;;;;;;;8.77;7.97;;;9.90;95.80;;;;;;5082712;28;20183;-88
2021/10/08 06:57:09;;;;;;;8.23;7.27;;;9.90;95.70;;;;;;5100862;28;20183;-89
2021/10/08 06:59:35;;;;;;;8.83;7.47;;;9.80;96.30;;;;;;5082710;28;20186;-89
2021/10/08 07:02:01;;;;;;;8.23;7.53;;;9.80;96.50;;;;;;5100002;28;20215;-88
2021/10/08 07:04:28;;;;;;;10.57;7.73;;;9.70;97.00;;;;;;5100590;28;20270;-90
2021/10/08 07:06:53;;;;;;;11.17;8.50;;;9.80;97.50;;;;;;5081123;28;20175;-88
2021/10/08 07:09:19;;;;;;;8.87;7.97;;;9.80;96.50;;;;;;5078807;28;20179;-88
2021/10/08 07:11:45;;;;;;;8.53;7.80;;;9.80;96.40;;;;;;5096243;28;20227;-88
2021/10/08 07:14:11;;;;;;;8.67;7.40;;;9.90;96.70;;;;;;5077858;28;20190;-88
2021/10/08 07:16:37;;;;;;;8.03;7.23;;;9.90;96.50;;;;;;5096518;28;20609;-89
2021/10/08 07:19:12;;;;;;;7.90;7.00;;;9.90;96.40;;;;;;5072339;28;20214;-89
2021/10/08 07:21:39;;;;;;;10.53;8.30;;;9.90;96.20;;;;;;5095781;28;20206;-88
2021/10/08 07:24:06;;;;;;;8.63;7.90;;;10.00;96.10;;;;;;5095577;28;20185;-88
2021/10/08 07:26:32;;;;;;;8.27;7.47;;;10.10;96.00;;;;;;5077501;28;20179;-88
2021/10/08 07:28:58;;;;;;;8.50;6.63;;;10.10;95.80;;;;;;5096148;28;20167;-88
2021/10/08 07:31:24;;;;;;;8.33;7.53;;;10.20;95.80;;;;;;5095755;28;20262;-88
2021/10/08 07:33:50;;;;;;;8.07;6.87;;;10.20;94.50;;;;;;5094774;28;20206;-89
2021/10/08 07:36:16;;;;;;;8.73;7.43;;;10.30;95.00;;;;;;5090580;28;20714;-88
2021/10/08 07:38:41;;;;;;;8.30;7.23;;;10.40;94.20;;;;;;5096131;28;20183;-89
2021/10/08 07:41:08;;;;;;;8.70;6.87;;;10.50;93.90;;;;;;5077892;28;20222;-90
2021/10/08 07:43:36;;;;;;;7.77;7.07;;;10.50;93.70;;;;;;5097054;28;20270;-89
2021/10/08 07:46:06;;;;;;;8.73;7.93;;;10.60;93.40;;;;;;5097230;28;20184;-88
2021/10/08 07:48:32;;;;;;;10.30;7.10;;;10.60;93.80;;;;;;5100015;28;20182;-88
2021/10/08 07:50:59;;;;;;;8.40;7.20;;;10.70;92.80;;;;;;5100257;28;20179;-89
2021/10/08 07:53:25;;;;;;;7.47;6.83;;;10.70;93.00;;;;;;5061448;28;20203;-88
2021/10/08 07:55:51;;;;;;;7.77;7.07;;;10.80;92.90;;;;;;5095590;28;20183;-89
2021/10/08 07:58:17;;;;;;;8.17;6.83;;;10.80;92.40;;;;;;5100570;28;20356;-88
2021/10/08 08:00:43;;;;;;;7.50;6.83;;;11.00;92.00;;;;;;5103097;28;20195;-88
2021/10/08 08:03:09;;;;;;;10.47;7.00;;;11.00;92.10;;;;;;5087428;28;20219;-91
2021/10/08 08:05:34;;;;;;;7.30;6.60;;;11.10;91.80;;;;;;5105943;28;20684;-88
2021/10/08 08:08:00;;;;;;;8.00;7.30;;;11.20;91.20;;;;;;5107687;28;20204;-88
2021/10/08 08:10:26;;;;;;;7.53;6.67;;;11.20;91.00;;;;;;5108818;28;20250;-88
2021/10/08 08:12:51;;;;;;;7.67;6.87;;;11.20;91.10;;;;;;5089420;28;20227;-88
2021/10/08 08:15:18;;;;;;;7.13;6.53;;;11.40;91.10;;;;;;5089868;28;20200;-87
2021/10/08 08:17:44;;;;;;;8.00;6.80;;;11.50;90.20;;;;;;5086268;28;20192;-88
2021/10/08 08:20:10;;;;;;;7.00;6.37;;;11.50;90.20;;;;;;5105652;28;20184;-88
2021/10/08 08:22:36;;;;;;;7.07;6.37;;;11.50;90.00;;;;;;5103598;28;20254;-87
2021/10/08 08:25:04;;;;;;;7.77;6.47;;;11.60;89.80;;;;;;5085388;28;20201;-88
2021/10/08 08:27:30;;;;;;;8.57;7.27;;;11.70;90.20;;;;;;5085445;28;20252;-88
2021/10/08 08:29:56;;;;;;;9.10;6.17;;;11.80;89.50;;;;;;5105682;28;20184;-88
2021/10/08 08:32:22;;;;;;;7.43;5.77;;;11.90;89.40;;;;;;5089017;28;20205;-88
2021/10/08 08:34:47;;;;;;;7.20;5.80;;;12.00;88.20;;;;;;5108294;28;20207;-88
2021/10/08 08:37:14;;;;;;;6.23;5.63;;;12.10;88.60;;;;;;5108653;28;20190;-88
2021/10/08 08:39:41;;;;;;;6.53;5.93;;;12.20;87.50;;;;;;5108427;28;20197;-88
2021/10/08 08:42:07;;;;;;;6.83;6.10;;;12.30;86.80;;;;;;5073719;28;20229;-88
2021/10/08 08:44:34;;;;;;;6.63;5.97;;;12.40;86.30;;;;;;5108835;28;20178;-88
2021/10/08 08:47:00;;;;;;;6.23;5.73;;;12.40;86.30;;;;;;5089681;28;20182;-88
2021/10/08 08:49:26;;;;;;;6.00;5.40;;;12.60;85.20;;;;;;5108391;28;20249;-89
2021/10/08 08:51:52;;;;;;;6.17;5.60;;;12.70;85.20;;;;;;5073916;28;20227;-88
2021/10/08 08:54:18;;;;;;;6.30;5.43;;;12.80;85.40;;;;;;5090610;28;20280;-88
2021/10/08 08:56:45;;;;;;;9.17;6.13;;;12.80;84.30;;;;;;5090647;28;20217;-88
2021/10/08 08:59:13;;;;;;;6.43;5.63;;;13.00;83.40;;;;;;5090857;28;20192;-88
2021/10/08 09:02:01;;;;;;;8.73;6.50;;;13.00;83.10;;;;;;5108148;28;20234;-89
2021/10/08 09:04:28;;;;;;;8.27;6.03;;;13.00;83.10;;;;;;5108788;28;20757;-88
2021/10/08 09:06:55;;;;;;;7.47;5.93;;;13.10;83.30;;;;;;5108025;28;20186;-88
2021/10/08 09:09:22;;;;;;;7.30;5.77;;;13.20;82.70;;;;;;5108900;28;20275;-88
2021/10/08 09:11:51;;;;;;;6.23;5.63;;;13.40;82.00;;;;;;5107546;28;20689;-88
2021/10/08 09:14:29;;;;;;;6.30;5.70;;;13.40;82.50;;;;;;5087791;28;20194;-87
2021/10/08 09:17:06;;;;;;;8.00;5.70;;;13.50;82.50;;;;;;5106883;28;20171;-88
2021/10/08 09:19:59;;;;;;;6.93;5.93;;;13.60;81.40;;;;;;5088756;28;20182;-87
2021/10/08 09:22:29;;;;;;;6.77;5.73;;;13.70;81.50;;;;;;5089767;28;20245;-88
2021/10/08 09:25:15;;;;;;;6.60;5.90;;;13.80;80.70;;;;;;5078377;28;20620;-88
2021/10/08 09:27:43;;;;;;;6.90;6.30;;;14.00;80.00;;;;;;5106732;28;20185;-89
2021/10/08 09:30:11;;;;;;;6.70;5.90;;;14.20;79.50;;;;;;5088660;28;20188;-86
2021/10/08 09:32:51;;;;;;;7.07;6.00;;;14.30;79.40;;;;;;5106617;28;20284;-88
2021/10/08 09:35:20;;;;;;;5.93;5.33;;;14.40;78.40;;;;;;5107233;28;20194;-88
2021/10/08 09:38:09;;;;;;;8.40;5.93;;;14.60;78.20;;;;;;5105898;28;20554;-89
2021/10/08 09:40:38;;;;;;;6.33;5.77;;;14.70;77.70;;;;;;5106958;28;20345;-87
2021/10/08 09:43:07;;;;;;;7.07;5.33;;;14.90;77.60;;;;;;5086178;28;20237;-88
2021/10/08 09:45:50;;;;;;;6.67;5.67;;;14.70;77.90;;;;;;5088508;28;20170;-89
2021/10/08 09:48:16;;;;;;;7.37;6.57;;;14.60;77.20;;;;;;5088153;28;20657;-88
2021/10/08 09:51:01;;;;;;;6.63;5.97;;;14.60;78.00;;;;;;5106433;28;20185;-88
2021/10/08 09:53:28;;;;;;;6.60;5.57;;;14.60;78.80;;;;;;5106032;28;20205;-88
2021/10/08 09:55:54;;;;;;;6.30;5.70;;;14.50;78.00;;;;;;5066096;28;20192;-87
2021/10/08 09:58:21;;;;;;;6.57;5.97;;;14.60;78.40;;;;;;5083761;28;20261;-89
2021/10/08 10:01:04;;;;;;;5.97;5.33;;;14.60;78.60;;;;;;5067907;28;20192;-88
2021/10/08 10:03:31;;;;;;;5.80;5.23;;;14.70;78.50;;;;;;5086529;28;20226;-88
2021/10/08 10:06:01;;;;;;;7.20;5.63;;;14.90;79.20;;;;;;5086571;28;20215;-88
2021/10/08 10:08:27;;;;;;;6.10;5.50;;;14.80;78.00;;;;;;5104641;28;20192;-88
2021/10/08 10:10:55;;;;;;;6.10;5.50;;;14.80;78.40;;;;;;5104956;28;20190;-87
2021/10/08 10:13:22;;;;;;;6.83;5.10;;;14.70;78.90;;;;;;5104379;28;20207;-87
2021/10/08 10:15:48;;;;;;;7.20;5.97;;;14.90;78.70;;;;;;5105099;28;20242;-87
2021/10/08 10:18:18;;;;;;;7.77;5.70;;;14.90;78.10;;;;;;5086347;28;20192;-88
2021/10/08 10:25:49;;;;;;;5.17;4.70;;;15.10;78.90;;;;;;5021547;28;20238;-86
2021/10/08 10:28:16;;;;;;;6.03;5.43;;;15.10;78.00;;;;;;5016695;28;20259;-86
2021/10/08 10:30:45;;;;;;;6.10;5.27;;;15.20;77.60;;;;;;5006337;28;20246;-86
2021/10/08 10:33:11;;;;;;;6.33;5.73;;;15.30;76.50;;;;;;4992807;28;20672;-85
2021/10/08 10:35:44;;;;;;;7.27;5.57;;;15.30;76.40;;;;;;4992029;28;20196;-85
2021/10/08 10:38:37;;;;;;;7.03;5.07;;;15.30;76.80;;;;;;5025048;28;20204;-85
2021/10/08 10:41:09;;;;;;;6.43;5.47;;;15.40;76.40;;;;;;5028334;28;20808;-85
2021/10/08 10:43:48;;;;;;;6.97;5.20;;;15.50;76.90;;;;;;5005068;28;20214;-85
2021/10/08 10:49:25;;;;;;;6.63;5.70;;;15.60;76.60;;;;;;5012411;28;20198;-87
2021/10/08 10:51:57;;;;;;;6.67;5.80;;;15.70;76.20;;;;;;5014059;28;20301;-86
2021/10/08 10:54:35;;;;;;;7.23;5.37;;;15.70;75.80;;;;;;5002634;28;20814;-83
2021/10/08 10:57:05;;;;;;;6.60;5.30;;;15.70;76.30;;;;;;5009116;28;20280;-83
2021/10/08 10:59:33;;;;;;;7.03;5.60;;;15.70;76.90;;;;;;5003243;28;20203;-84
2021/10/08 11:02:17;;;;;;;6.50;5.37;;;15.70;76.50;;;;;;5006845;28;20219;-84
2021/10/08 11:04:46;;;;;;;6.23;5.07;;;15.80;76.60;;;;;;5009357;28;20685;-85
2021/10/08 11:07:16;;;;;;;5.30;4.80;;;15.80;76.30;;;;;;5010791;28;20214;-84
2021/10/08 11:09:44;;;;;;;6.93;5.50;;;15.90;76.70;;;;;;5008838;28;20288;-85
2021/10/08 11:12:40;;;;;;;6.33;5.70;;;16.00;76.70;;;;;;5011829;28;20220;-86
2021/10/08 11:15:15;;;;;;;9.17;6.87;;;16.10;74.70;;;;;;5011890;28;20206;-84
2021/10/08 11:17:58;;;;;;;6.97;6.23;;;16.10;73.80;;;;;;5011330;28;20204;-86
2021/10/08 11:20:30;;;;;;;6.40;5.83;;;16.10;74.30;;;;;;5012158;28;20228;-86
2021/10/08 11:23:00;;;;;;;7.30;6.03;;;16.10;74.70;;;;;;5017883;28;20274;-85
2021/10/08 11:25:31;;;;;;;6.30;5.73;;;16.10;74.50;;;;;;5010357;28;20207;-86
2021/10/08 11:27:57;;;;;;;6.63;6.03;;;16.10;75.00;;;;;;5012830;28;20222;-85
2021/10/08 11:30:28;;;;;;;7.07;6.20;;;16.00;74.40;;;;;;5016143;28;20199;-85
2021/10/08 11:32:56;;;;;;;7.90;6.37;;;16.00;74.70;;;;;;5010334;28;20231;-86
2021/10/08 11:35:32;;;;;;;6.23;5.67;;;16.10;74.50;;;;;;5013393;28;20212;-83
2021/10/08 11:37:59;;;;;;;10.73;6.37;;;16.20;74.30;;;;;;5003380;28;20188;-83
2021/10/08 11:40:32;;;;;;;7.03;6.43;;;16.30;74.70;;;;;;5008972;28;20208;-85
2021/10/08 11:43:10;;;;;;;7.23;6.63;;;16.50;74.20;;;;;;5026773;28;20269;-85
2021/10/08 11:48:31;;;;;;;7.60;6.83;;;16.50;73.60;;;;;;5010386;28;20238;-86
2021/10/08 11:51:05;;;;;;;12.03;6.67;;;16.30;73.90;;;;;;5000191;28;20194;-85
2021/10/08 11:53:51;;;;;;;7.13;6.23;;;16.30;74.30;;;;;;5011438;28;20217;-86
2021/10/08 11:56:25;;;;;;;7.77;6.63;;;16.20;74.70;;;;;;5006463;28;20650;-84
2021/10/08 11:59:06;;;;;;;7.97;6.30;;;16.20;74.20;;;;;;5000468;28;20247;-86
2021/10/08 12:01:31;;;;;;;9.60;7.80;;;16.30;74.80;;;;;;5019008;28;20224;-84
2021/10/08 12:03:57;;;;;;;9.43;7.63;;;16.40;74.30;;;;;;5002532;28;20205;-85
2021/10/08 12:06:25;;;;;;;8.90;7.50;;;16.40;74.00;;;;;;5032722;28;20284;-88
2021/10/08 12:08:52;;;;;;;8.00;7.30;;;16.50;73.40;;;;;;5013072;28;20200;-87
2021/10/08 12:11:19;;;;;;;8.97;8.03;;;16.50;74.00;;;;;;5008904;28;20221;-88
2021/10/08 12:13:58;;;;;;;8.07;7.33;;;16.40;73.10;;;;;;5030407;28;20212;-88
2021/10/08 12:16:36;;;;;;;8.83;7.60;;;16.40;73.70;;;;;;5018008;28;20193;-89
2021/10/08 12:19:06;;;;;;;8.83;7.90;;;16.40;73.20;;;;;;5006378;28;20208;-88
2021/10/08 12:21:46;;;;;;;9.63;8.00;;;16.40;73.70;;;;;;5024315;28;20308;-89
2021/10/08 12:24:14;;;;;;;9.03;7.83;;;16.60;73.60;;;;;;4998623;28;20290;-88
2021/10/08 12:27:01;;;;;;;8.83;8.03;;;16.60;73.30;;;;;;4996602;28;20213;-89
2021/10/08 12:29:50;;;;;;;9.67;8.67;;;16.60;73.60;;;;;;5016407;28;20194;-89
2021/10/08 12:32:17;;;;;;;9.83;8.30;;;16.60;72.50;;;;;;5004853;28;20272;-89
2021/10/08 12:34:46;;;;;;;9.83;8.80;;;16.60;74.00;;;;;;5010360;28;20197;-88
2021/10/08 12:37:17;;;;;;;10.03;7.70;;;16.60;73.00;;;;;;5006932;28;20252;-89
2021/10/08 12:40:10;;;;;;;9.10;8.20;;;16.60;72.50;;;;;;4988785;28;20205;-89
2021/10/08 12:42:50;;;;;;;9.60;8.63;;;16.60;73.50;;;;;;5004873;28;20309;-88
2021/10/08 12:45:21;;;;;;;9.10;8.23;;;16.60;73.00;;;;;;5017533;28;20183;-89
2021/10/08 12:47:48;;;;;;;9.93;8.97;;;16.70;73.10;;;;;;5002453;28;20186;-89
2021/10/08 12:50:18;;;;;;;9.67;8.67;;;16.70;72.50;;;;;;5010740;28;20652;-88
2021/10/08 12:52:47;;;;;;;10.47;7.93;;;16.80;72.60;;;;;;5005278;28;20228;-88
2021/10/08 12:55:25;;;;;;;8.73;7.87;;;16.90;73.30;;;;;;5020324;28;20194;-88
2021/10/08 12:58:10;;;;;;;9.17;8.23;;;17.00;73.00;;;;;;5004250;28;20211;-89
2021/10/08 13:01:02;;;;;;;9.70;8.80;;;17.10;71.20;;;;;;4999554;28;20302;-89
2021/10/08 13:03:33;;;;;;;8.87;7.93;;;17.10;72.10;;;;;;5007388;28;20277;-88
2021/10/08 13:05:59;;;;;;;9.00;8.20;;;17.00;71.90;;;;;;5012628;28;20233;-88
2021/10/08 13:08:31;;;;;;;8.93;8.03;;;16.90;72.30;;;;;;5012770;28;20190;-89
2021/10/08 13:11:07;;;;;;;11.57;9.43;;;17.00;72.70;;;;;;5012856;28;20268;-89